Indianapolis, Indiana
Traffic Map
Current Weather Conditions
Indianapolis, Indiana
Scattered Clouds
Scattered Clouds
74°
Feels Like: 74°
Wind Chill: 74° Ceiling: Unl
Heat Index: 74° Visibility: 10mi
Dew Point: 68° Wind: 6mph
Humidity: 82% Direction: 110° (ESE)
Pressure: 29.94in Gusts: 0mph
Raw Report DataKIND 300254Z 11005KT 10SM FEW050 FEW160 SCT250 23/20 A2994 RMK AO2 SLP130 T02330200 51009
Traffic Incident Summary
Active as of:
Severity:
Category:
InformationThere was an issue retrieving the traffic information for this location. Please try a different location or try again shortly.
Advertisements
Track Severe Weather on mobile